Time,TemperatureF,DewpointF,PressureIn,WindDirection,WindDirectionDegrees,WindSpeedMPH,WindSpeedGustMPH,Humidity,HourlyPrecipIn,Conditions,Clouds,dailyrainin,SoftwareType,DateUTC
2013-01-19 00:03:00,41.7,25.8,30.03,SW,220,0.0,0.0,53,0.00,CLR,,0.00,WeatherDisplay:10.37,2013-01-19 06:03:00,
2013-01-19 00:08:00,41.4,25.5,30.03,SW,220,0.0,0.0,53,0.00,CLR,,0.00,WeatherDisplay:10.37,2013-01-19 06:08:00,
2013-01-19 00:13:00,41.0,26.1,30.03,SW,220,3.1,0.0,55,0.00,CLR,,0.00,WeatherDisplay:10.37,2013-01-19 06:13:00,
2013-01-19 00:18:00,40.5,25.5,30.03,SSW,202,0.0,0.0,55,0.00,CLR,,0.00,WeatherDisplay:10.37,2013-01-19 06:18:00,
2013-01-19 00:23:00,40.3,25.4,30.03,SW,225,3.5,3.5,55,0.00,CLR,,0.00,WeatherDisplay:10.37,2013-01-19 06:23:00,
2013-01-19 00:28:00,39.9,25.0,30.03,SW,221,2.7,2.7,55,0.00,CLR,,0.00,WeatherDisplay:10.37,2013-01-19 06:28:00,
2013-01-19 00:33:00,39.9,25.0,30.03,SSW,203,0.0,0.0,55,0.00,CLR,,0.00,WeatherDisplay:10.37,2013-01-19 06:33:00,
2013-01-19 00:38:00,39.7,24.9,30.03,WSW,243,3.5,0.0,55,0.00,CLR,,0.00,WeatherDisplay:10.37,2013-01-19 06:38:00,
2013-01-19 00:43:00,39.6,24.7,30.03,SW,217,2.7,0.0,55,0.00,CLR,,0.00,WeatherDisplay:10.37,2013-01-19 06:43:00,
2013-01-19 00:48:00,39.6,24.7,30.03,SSW,212,5.8,5.8,55,0.00,CLR,,0.00,WeatherDisplay:10.37,2013-01-19 06:48:00,
2013-01-19 00:53:00,39.4,24.5,30.03,SSW,199,4.0,4.0,55,0.00,CLR,,0.00,WeatherDisplay:10.37,2013-01-19 06:53:00,
2013-01-19 00:58:00,39.4,24.5,30.03,SSW,198,0.0,0.0,55,0.00,CLR,,0.00,WeatherDisplay:10.37,2013-01-19 06:58:00,
2013-01-19 01:03:00,39.4,24.5,30.03,WSW,254,2.7,0.0,55,0.00,CLR,,0.00,WeatherDisplay:10.37,2013-01-19 07:03:00,
2013-01-19 01:08:00,39.4,24.5,30.03,SSW,211,3.5,0.0,55,0.00,CLR,,0.00,WeatherDisplay:10.37,2013-01-19 07:08:00,
2013-01-19 01:13:00,39.2,23.5,30.03,SSW,208,2.3,0.0,53,0.00,CLR,,0.00,WeatherDisplay:10.37,2013-01-19 07:13:00,
2013-01-19 01:18:00,39.0,23.3,30.00,WSW,252,2.3,2.3,53,0.00,CLR,,0.00,WeatherDisplay:10.37,2013-01-19 07:18:00,
2013-01-19 01:23:00,38.8,23.2,30.00,South,191,3.5,0.0,53,0.00,CLR,,0.00,WeatherDisplay:10.37,2013-01-19 07:23:00,
2013-01-19 01:28:00,38.8,23.2,30.00,SSW,202,3.5,0.0,53,0.00,CLR,,0.00,WeatherDisplay:10.37,2013-01-19 07:28:00,
2013-01-19 01:33:00,39.0,23.3,30.00,SW,219,2.3,0.0,53,0.00,CLR,,0.00,WeatherDisplay:10.37,2013-01-19 07:33:00,
2013-01-19 01:38:00,38.8,23.2,30.00,SW,230,3.5,0.0,53,0.00,CLR,,0.00,WeatherDisplay:10.37,2013-01-19 07:38:00,
2013-01-19 01:43:00,38.8,23.2,30.00,SW,223,0.0,0.0,53,0.00,CLR,,0.00,WeatherDisplay:10.37,2013-01-19 07:43:00,
2013-01-19 01:48:00,38.8,23.2,30.03,South,171,0.0,0.0,53,0.00,CLR,,0.00,WeatherDisplay:10.37,2013-01-19 07:48:00,
2013-01-19 01:53:00,38.7,23.0,30.03,SSE,162,0.0,0.0,53,0.00,CLR,,0.00,WeatherDisplay:10.37,2013-01-19 07:53:00,
2013-01-19 01:58:00,38.7,23.0,30.03,SSW,206,0.0,0.0,53,0.00,CLR,,0.00,WeatherDisplay:10.37,2013-01-19 07:58:00,
2013-01-19 02:03:00,38.7,23.4,30.03,SSW,208,3.5,3.5,54,0.00,CLR,,0.00,WeatherDisplay:10.37,2013-01-19 08:03:00,
2013-01-19 02:08:00,38.7,23.4,30.03,WSW,237,3.5,3.5,54,0.00,CLR,,0.00,WeatherDisplay:10.37,2013-01-19 08:08:00,
2013-01-19 02:13:00,38.8,23.6,30.03,South,182,3.5,3.5,54,0.00,CLR,,0.00,WeatherDisplay:10.37,2013-01-19 08:13:00,
2013-01-19 02:18:00,38.8,23.6,30.03,SSW,199,3.5,3.5,54,0.00,CLR,,0.00,WeatherDisplay:10.37,2013-01-19 08:18:00,
2013-01-19 02:23:00,39.0,23.8,30.03,SW,230,2.3,2.3,54,0.00,CLR,,0.00,WeatherDisplay:10.37,2013-01-19 08:23:00,
2013-01-19 02:28:00,39.2,23.9,30.03,WSW,239,3.5,0.0,54,0.00,CLR,,0.00,WeatherDisplay:10.37,2013-01-19 08:28:00,
2013-01-19 02:33:00,39.2,23.9,30.03,SSW,201,3.5,0.0,54,0.00,CLR,,0.00,WeatherDisplay:10.37,2013-01-19 08:33:00,
2013-01-19 02:38:00,39.0,23.8,30.03,SW,215,4.6,4.6,54,0.00,CLR,,0.00,WeatherDisplay:10.37,2013-01-19 08:38:00,
2013-01-19 02:43:00,39.0,23.8,30.03,WSW,239,5.4,5.4,54,0.00,CLR,,0.00,WeatherDisplay:10.37,2013-01-19 08:43:00,
2013-01-19 02:48:00,39.0,23.8,30.00,South,181,5.8,5.8,54,0.00,CLR,,0.00,WeatherDisplay:10.37,2013-01-19 08:48:00,
2013-01-19 02:53:00,39.2,23.9,30.00,SSW,202,4.6,4.6,54,0.00,CLR,,0.00,WeatherDisplay:10.37,2013-01-19 08:53:00,
2013-01-19 02:58:00,39.4,24.1,30.00,South,170,5.8,5.8,54,0.00,CLR,,0.00,WeatherDisplay:10.37,2013-01-19 08:58:00,
2013-01-19 03:03:00,39.6,24.3,30.00,SW,234,4.0,4.0,54,0.00,CLR,,0.00,WeatherDisplay:10.37,2013-01-19 09:03:00,
2013-01-19 03:08:00,39.6,24.3,30.00,WSW,245,3.5,3.5,54,0.00,CLR,,0.00,WeatherDisplay:10.37,2013-01-19 09:08:00,
2013-01-19 03:13:00,39.7,25.7,30.00,WSW,239,5.8,5.8,57,0.00,CLR,,0.00,WeatherDisplay:10.37,2013-01-19 09:13:00,
2013-01-19 03:18:00,39.7,25.7,30.00,West,271,2.3,0.0,57,0.00,CLR,,0.00,WeatherDisplay:10.37,2013-01-19 09:18:00,
2013-01-19 03:23:00,39.7,25.7,30.00,SSW,209,3.5,4.5,57,0.00,CLR,,0.00,WeatherDisplay:10.37,2013-01-19 09:23:00,
2013-01-19 03:29:00,39.6,25.6,30.00,SW,224,3.5,0.0,57,0.00,CLR,,0.00,WeatherDisplay:10.37,2013-01-19 09:29:00,
2013-01-19 03:34:00,39.6,25.6,30.00,SW,228,4.6,4.6,57,0.00,CLR,,0.00,WeatherDisplay:10.37,2013-01-19 09:34:00,
2013-01-19 03:39:00,39.4,25.4,30.00,South,174,5.8,5.8,57,0.00,CLR,,0.00,WeatherDisplay:10.37,2013-01-19 09:39:00,
2013-01-19 03:44:00,39.6,25.6,30.00,SW,234,5.8,5.8,57,0.00,CLR,,0.00,WeatherDisplay:10.37,2013-01-19 09:44:00,
2013-01-19 03:49:00,39.7,25.7,30.00,SW,222,3.5,3.5,57,0.00,CLR,,0.00,WeatherDisplay:10.37,2013-01-19 09:49:00,
2013-01-19 03:54:00,39.7,25.7,30.00,WSW,258,5.8,5.8,57,0.00,CLR,,0.00,WeatherDisplay:10.37,2013-01-19 09:54:00,
2013-01-19 03:59:00,39.6,25.6,30.00,SW,233,3.5,3.6,57,0.00,CLR,,0.00,WeatherDisplay:10.37,2013-01-19 09:59:00,
2013-01-19 04:04:00,39.6,25.6,30.00,WSW,239,4.6,4.6,57,0.00,CLR,,0.00,WeatherDisplay:10.37,2013-01-19 10:04:00,
2013-01-19 04:09:00,39.6,25.6,30.00,WSW,243,5.8,5.8,57,0.00,CLR,,0.00,WeatherDisplay:10.37,2013-01-19 10:09:00,
2013-01-19 04:14:00,39.4,26.2,30.00,SW,233,5.8,5.8,59,0.00,CLR,,0.00,WeatherDisplay:10.37,2013-01-19 10:14:00,
2013-01-19 04:19:00,39.4,26.2,30.00,WSW,249,3.5,0.0,59,0.00,CLR,,0.00,WeatherDisplay:10.37,2013-01-19 10:19:00,
2013-01-19 04:24:00,39.4,26.2,30.00,West,269,0.0,0.0,59,0.00,CLR,,0.00,WeatherDisplay:10.37,2013-01-19 10:24:00,
2013-01-19 04:29:00,39.2,26.1,30.00,SW,232,3.5,4.0,59,0.00,CLR,,0.00,WeatherDisplay:10.37,2013-01-19 10:29:00,
2013-01-19 04:34:00,39.0,25.9,29.97,SW,216,3.5,3.5,59,0.00,CLR,,0.00,WeatherDisplay:10.37,2013-01-19 10:34:00,
2013-01-19 04:39:00,38.8,25.7,29.97,SW,216,3.5,3.5,59,0.00,CLR,,0.00,WeatherDisplay:10.37,2013-01-19 10:39:00,
2013-01-19 04:44:00,38.8,25.7,29.97,SW,226,4.6,4.6,59,0.00,CLR,,0.00,WeatherDisplay:10.37,2013-01-19 10:44:00,
2013-01-19 04:49:00,38.7,25.6,29.97,WSW,247,3.5,3.6,59,0.00,CLR,,0.00,WeatherDisplay:10.37,2013-01-19 10:49:00,
2013-01-19 04:54:00,38.8,25.7,29.97,SW,218,4.6,4.6,59,0.00,CLR,,0.00,WeatherDisplay:10.37,2013-01-19 10:54:00,
2013-01-19 04:59:00,38.8,25.7,29.97,South,182,3.5,3.5,59,0.00,CLR,,0.00,WeatherDisplay:10.37,2013-01-19 10:59:00,
2013-01-19 05:04:00,38.8,25.7,29.97,SSW,199,5.8,5.8,59,0.00,CLR,,0.00,WeatherDisplay:10.37,2013-01-19 11:04:00,
2013-01-19 05:09:00,38.8,25.7,29.97,WSW,256,3.5,3.5,59,0.00,CLR,,0.00,WeatherDisplay:10.37,2013-01-19 11:09:00,
2013-01-19 05:14:00,38.8,24.9,29.97,SSW,200,4.0,4.0,57,0.00,CLR,,0.00,WeatherDisplay:10.37,2013-01-19 11:14:00,
2013-01-19 06:47:00,37.4,25.2,30.00,SW,214,8.7,8.7,61,0.00,CLR,,0.00,WeatherDisplay:10.37,2013-01-19 12:47:00,
2013-01-19 06:48:00,37.4,25.2,30.00,South,176,5.8,5.8,61,0.00,CLR,,0.00,WeatherDisplay:10.37,2013-01-19 12:48:00,
2013-01-19 06:53:00,37.2,25.0,30.00,WSW,237,3.6,3.6,61,0.00,CLR,,0.00,WeatherDisplay:10.37,2013-01-19 12:53:00,
2013-01-19 06:58:00,37.4,25.2,30.00,SW,216,5.8,5.8,61,0.00,CLR,,0.00,WeatherDisplay:10.37,2013-01-19 12:58:00,
2013-01-19 07:03:00,37.4,25.2,30.00,SSW,197,5.8,5.8,61,0.00,CLR,,0.00,WeatherDisplay:10.37,2013-01-19 13:03:00,
2013-01-19 07:08:00,37.6,25.3,30.00,SW,236,4.6,4.6,61,0.00,CLR,,0.00,WeatherDisplay:10.37,2013-01-19 13:08:00,
2013-01-19 07:13:00,37.6,25.3,30.00,WSW,245,5.8,5.8,61,0.00,CLR,,0.00,WeatherDisplay:10.37,2013-01-19 13:13:00,
2013-01-19 07:18:00,37.4,25.2,30.00,SSW,211,3.5,3.5,61,0.00,CLR,,0.00,WeatherDisplay:10.37,2013-01-19 13:18:00,
2013-01-19 07:23:00,37.2,25.0,30.00,WSW,246,5.8,5.8,61,0.00,CLR,,0.00,WeatherDisplay:10.37,2013-01-19 13:23:00,
2013-01-19 07:28:00,37.2,25.0,30.00,SW,222,5.8,5.8,61,0.00,CLR,,0.00,WeatherDisplay:10.37,2013-01-19 13:28:00,
2013-01-19 07:33:00,37.2,25.0,30.00,WSW,237,4.6,4.6,61,0.00,CLR,,0.00,WeatherDisplay:10.37,2013-01-19 13:33:00,
2013-01-19 07:38:00,37.2,25.0,30.00,SW,227,5.8,5.8,61,0.00,CLR,,0.00,WeatherDisplay:10.37,2013-01-19 13:38:00,
2013-01-19 07:43:00,37.2,25.0,30.00,SE,131,5.8,5.8,61,0.00,CLR,,0.00,WeatherDisplay:10.37,2013-01-19 13:43:00,
2013-01-19 07:48:00,37.0,24.8,30.00,SW,226,4.6,4.6,61,0.00,CLR,,0.00,WeatherDisplay:10.37,2013-01-19 13:48:00,
2013-01-19 07:53:00,37.0,24.8,30.00,SW,233,3.5,3.5,61,0.00,CLR,,0.00,WeatherDisplay:10.37,2013-01-19 13:53:00,
2013-01-19 07:58:00,37.0,24.8,30.00,WSW,241,3.5,3.5,61,0.00,CLR,,0.00,WeatherDisplay:10.37,2013-01-19 13:58:00,
2013-01-19 08:03:00,36.9,24.7,30.00,SW,225,3.5,3.5,61,0.00,CLR,,0.00,WeatherDisplay:10.37,2013-01-19 14:03:00,
2013-01-19 08:08:00,36.9,24.7,30.00,WSW,240,4.9,4.9,61,0.00,CLR,,0.00,WeatherDisplay:10.37,2013-01-19 14:08:00,
2013-01-19 08:13:00,37.0,26.0,30.00,SW,232,3.6,3.6,64,0.00,CLR,,0.00,WeatherDisplay:10.37,2013-01-19 14:13:00,
2013-01-19 08:19:00,37.4,26.3,30.00,SW,226,5.8,5.8,64,0.00,CLR,,0.00,WeatherDisplay:10.37,2013-01-19 14:19:00,
2013-01-19 08:24:00,37.9,26.8,30.00,WSW,247,5.8,5.8,64,0.00,CLR,,0.00,WeatherDisplay:10.37,2013-01-19 14:24:00,
2013-01-19 08:29:00,38.7,27.5,30.00,WSW,237,4.6,4.6,64,0.00,CLR,,0.00,WeatherDisplay:10.37,2013-01-19 14:29:00,
2013-01-19 08:34:00,39.2,28.0,30.00,WSW,257,3.5,3.5,64,0.00,CLR,,0.00,WeatherDisplay:10.37,2013-01-19 14:34:00,
2013-01-19 08:39:00,39.7,28.5,30.00,WSW,247,5.8,0.0,64,0.00,CLR,,0.00,WeatherDisplay:10.37,2013-01-19 14:39:00,
2013-01-19 08:44:00,40.3,29.1,30.00,West,274,5.8,5.8,64,0.00,CLR,,0.00,WeatherDisplay:10.37,2013-01-19 14:44:00,
2013-01-19 08:49:00,40.8,29.6,30.03,WNW,283,2.3,2.3,64,0.00,CLR,,0.00,WeatherDisplay:10.37,2013-01-19 14:49:00,
2013-01-19 08:54:00,41.2,29.9,30.03,SW,235,3.5,3.5,64,0.00,CLR,,0.00,WeatherDisplay:10.37,2013-01-19 14:54:00,
2013-01-19 08:59:00,41.7,30.4,30.03,SSW,194,3.5,3.5,64,0.00,CLR,,0.00,WeatherDisplay:10.37,2013-01-19 14:59:00,
2013-01-19 09:04:00,42.1,29.6,30.03,WSW,247,3.5,3.5,61,0.00,CLR,,0.00,WeatherDisplay:10.37,2013-01-19 15:04:00,
2013-01-19 09:09:00,42.4,29.9,30.03,WNW,283,3.5,3.5,61,0.00,CLR,,0.00,WeatherDisplay:10.37,2013-01-19 15:09:00,
2013-01-19 09:14:00,42.8,30.3,30.03,SW,235,3.5,3.5,61,0.00,CLR,,0.00,WeatherDisplay:10.37,2013-01-19 15:14:00,
2013-01-19 09:19:00,43.3,30.8,30.03,SW,215,4.6,4.6,61,0.00,CLR,,0.00,WeatherDisplay:10.37,2013-01-19 15:19:00,
2013-01-19 09:24:00,43.7,31.1,30.03,SW,231,4.6,4.6,61,0.00,CLR,,0.00,WeatherDisplay:10.37,2013-01-19 15:24:00,
2013-01-19 09:29:00,44.1,31.5,30.03,WSW,248,5.8,5.8,61,0.00,CLR,,0.00,WeatherDisplay:10.37,2013-01-19 15:29:00,
2013-01-19 09:34:00,44.6,32.0,30.03,SSW,203,3.5,0.0,61,0.00,CLR,,0.00,WeatherDisplay:10.37,2013-01-19 15:34:00,
2013-01-19 09:39:00,45.0,32.3,30.03,SW,220,5.8,5.8,61,0.00,CLR,,0.00,WeatherDisplay:10.37,2013-01-19 15:39:00,
2013-01-19 09:44:00,45.1,32.5,30.03,SW,220,5.8,5.8,61,0.00,CLR,,0.00,WeatherDisplay:10.37,2013-01-19 15:44:00,
2013-01-19 09:49:00,45.3,32.7,30.06,SW,229,5.8,5.8,61,0.00,CLR,,0.00,WeatherDisplay:10.37,2013-01-19 15:49:00,
2013-01-19 09:54:00,45.7,33.0,30.06,West,262,5.8,5.8,61,0.00,CLR,,0.00,WeatherDisplay:10.37,2013-01-19 15:54:00,
2013-01-19 09:59:00,46.0,33.3,30.06,WSW,241,5.8,5.8,61,0.00,CLR,,0.00,WeatherDisplay:10.37,2013-01-19 15:59:00,
2013-01-19 10:04:00,46.2,28.6,30.06,WSW,253,4.9,4.9,50,0.00,CLR,,0.00,WeatherDisplay:10.37,2013-01-19 16:04:00,
2013-01-19 10:09:00,46.6,28.9,30.06,SW,233,5.8,5.8,50,0.00,CLR,,0.00,WeatherDisplay:10.37,2013-01-19 16:09:00,
2013-01-19 10:14:00,46.9,29.2,30.06,SW,214,4.0,4.0,50,0.00,CLR,,0.00,WeatherDisplay:10.37,2013-01-19 16:14:00,
2013-01-19 10:19:00,47.3,29.6,30.06,NW,324,3.5,3.5,50,0.00,CLR,,0.00,WeatherDisplay:10.37,2013-01-19 16:19:00,
2013-01-19 10:24:00,47.8,30.1,30.06,SW,231,4.6,4.6,50,0.00,CLR,,0.00,WeatherDisplay:10.37,2013-01-19 16:24:00,
2013-01-19 10:29:00,48.6,30.7,30.06,West,278,3.5,3.6,50,0.00,CLR,,0.00,WeatherDisplay:10.37,2013-01-19 16:29:00,
2013-01-19 10:34:00,49.1,31.2,30.09,SW,223,5.8,5.8,50,0.00,CLR,,0.00,WeatherDisplay:10.37,2013-01-19 16:34:00,
2013-01-19 10:39:00,50.0,32.1,30.09,West,281,5.8,5.8,50,0.00,CLR,,0.00,WeatherDisplay:10.37,2013-01-19 16:39:00,
2013-01-19 10:44:00,50.5,32.6,30.09,WSW,241,5.8,5.8,50,0.00,CLR,,0.00,WeatherDisplay:10.37,2013-01-19 16:44:00,
2013-01-19 10:49:00,51.1,33.1,30.09,WNW,301,6.9,6.9,50,0.00,CLR,,0.00,WeatherDisplay:10.37,2013-01-19 16:49:00,
2013-01-19 10:54:00,51.6,33.6,30.09,NW,306,3.6,3.6,50,0.00,CLR,,0.00,WeatherDisplay:10.37,2013-01-19 16:54:00,
2013-01-19 10:59:00,51.8,33.7,30.09,SW,230,5.8,5.8,50,0.00,CLR,,0.00,WeatherDisplay:10.37,2013-01-19 16:59:00,
2013-01-19 11:04:00,52.2,29.7,30.06,SW,229,5.8,5.8,42,0.00,CLR,,0.00,WeatherDisplay:10.37,2013-01-19 17:04:00,
2013-01-19 11:09:00,52.2,29.7,30.06,WSW,238,5.8,5.8,42,0.00,CLR,,0.00,WeatherDisplay:10.37,2013-01-19 17:09:00,
2013-01-19 11:15:00,52.2,29.7,30.06,West,276,5.8,5.8,42,0.00,CLR,,0.00,WeatherDisplay:10.37,2013-01-19 17:15:00,
2013-01-19 11:20:00,52.5,30.1,30.09,West,260,5.8,5.8,42,0.00,CLR,,0.00,WeatherDisplay:10.37,2013-01-19 17:20:00,
2013-01-19 11:25:00,53.1,30.6,30.09,WSW,247,10.4,10.4,42,0.00,CLR,,0.00,WeatherDisplay:10.37,2013-01-19 17:25:00,
2013-01-19 11:30:00,53.1,30.6,30.09,NNW,342,2.7,0.0,42,0.00,CLR,,0.00,WeatherDisplay:10.37,2013-01-19 17:30:00,
2013-01-19 11:35:00,53.2,30.7,30.09,WSW,255,3.5,3.5,42,0.00,CLR,,0.00,WeatherDisplay:10.37,2013-01-19 17:35:00,
2013-01-19 11:40:00,53.1,30.6,30.09,NW,318,6.9,6.9,42,0.00,CLR,,0.00,WeatherDisplay:10.37,2013-01-19 17:40:00,
2013-01-19 11:45:00,53.1,30.6,30.09,West,268,3.0,7.0,42,0.00,CLR,,0.00,WeatherDisplay:10.37,2013-01-19 17:45:00,
2013-01-19 11:50:00,53.2,30.7,30.06,WSW,240,3.5,3.5,42,0.00,CLR,,0.00,WeatherDisplay:10.37,2013-01-19 17:50:00,
2013-01-19 11:56:00,53.8,31.2,30.06,West,262,8.1,8.1,42,0.00,CLR,,0.00,WeatherDisplay:10.37,2013-01-19 17:56:00,
2013-01-19 12:02:00,54.3,31.7,30.06,WNW,282,5.8,5.8,42,0.00,CLR,,0.00,WeatherDisplay:10.37,2013-01-19 18:02:00,
2013-01-19 12:07:00,54.7,32.0,30.06,SW,230,3.5,3.5,42,0.00,CLR,,0.00,WeatherDisplay:10.37,2013-01-19 18:07:00,
2013-01-19 12:12:00,54.9,32.2,30.06,West,272,5.8,5.8,42,0.00,CLR,,0.00,WeatherDisplay:10.37,2013-01-19 18:12:00,
2013-01-19 12:17:00,55.2,32.5,30.06,SW,216,6.3,6.3,42,0.00,CLR,,0.00,WeatherDisplay:10.37,2013-01-19 18:17:00,
2013-01-19 12:23:00,55.4,28.9,30.06,West,274,5.8,5.8,36,0.00,CLR,,0.00,WeatherDisplay:10.37,2013-01-19 18:23:00,
2013-01-19 12:29:00,55.8,29.2,30.06,West,266,5.8,5.8,36,0.00,CLR,,0.00,WeatherDisplay:10.37,2013-01-19 18:29:00,
2013-01-19 12:34:00,55.8,29.2,30.06,SW,231,9.2,9.2,36,0.00,CLR,,0.00,WeatherDisplay:10.37,2013-01-19 18:34:00,
2013-01-19 12:39:00,55.6,29.0,30.06,NW,313,3.5,3.5,36,0.00,CLR,,0.00,WeatherDisplay:10.37,2013-01-19 18:39:00,
2013-01-19 12:44:00,55.6,29.0,30.06,NNW,348,4.6,4.6,36,0.00,CLR,,0.00,WeatherDisplay:10.37,2013-01-19 18:44:00,
2013-01-19 12:49:00,55.6,29.0,30.06,WNW,285,4.0,4.0,36,0.00,CLR,,0.00,WeatherDisplay:10.37,2013-01-19 18:49:00,
2013-01-19 12:54:00,55.8,29.2,30.06,West,276,5.8,5.8,36,0.00,CLR,,0.00,WeatherDisplay:10.37,2013-01-19 18:54:00,
2013-01-19 12:59:00,55.9,29.3,30.06,West,264,3.5,0.0,36,0.00,CLR,,0.00,WeatherDisplay:10.37,2013-01-19 18:59:00,
2013-01-19 13:04:00,56.3,29.0,30.06,WNW,301,4.6,4.6,35,0.00,CLR,,0.00,WeatherDisplay:10.37,2013-01-19 19:04:00,
2013-01-19 13:10:00,56.7,29.3,30.06,WNW,303,2.0,6.0,35,0.00,CLR,,0.00,WeatherDisplay:10.37,2013-01-19 19:10:00,
2013-01-19 13:15:00,56.8,29.4,30.06,North,350,5.8,5.8,35,0.00,CLR,,0.00,WeatherDisplay:10.37,2013-01-19 19:15:00,
2013-01-19 13:20:00,56.9,29.5,30.06,WNW,291,3.0,6.0,35,0.00,CLR,,0.00,WeatherDisplay:10.37,2013-01-19 19:20:00,
2013-01-19 13:26:00,57.2,29.8,30.06,West,270,3.6,3.6,35,0.00,CLR,,0.00,WeatherDisplay:10.37,2013-01-19 19:26:00,
2013-01-19 13:31:00,57.4,29.9,30.06,West,271,3.5,3.5,35,0.00,CLR,,0.00,WeatherDisplay:10.37,2013-01-19 19:31:00,
2013-01-19 13:36:00,57.6,30.1,30.06,SW,234,3.5,3.5,35,0.00,CLR,,0.00,WeatherDisplay:10.37,2013-01-19 19:36:00,
2013-01-19 13:41:00,57.9,30.4,30.06,West,275,4.6,4.6,35,0.00,CLR,,0.00,WeatherDisplay:10.37,2013-01-19 19:41:00,
2013-01-19 13:47:00,58.1,30.6,30.06,WSW,239,3.6,3.6,35,0.00,CLR,,0.00,WeatherDisplay:10.37,2013-01-19 19:47:00,
2013-01-19 13:53:00,58.5,30.9,30.03,WSW,237,10.5,10.5,35,0.00,CLR,,0.00,WeatherDisplay:10.37,2013-01-19 19:53:00,
2013-01-19 13:58:00,58.6,31.0,30.03,West,281,5.8,5.8,35,0.00,CLR,,0.00,WeatherDisplay:10.37,2013-01-19 19:58:00,
2013-01-19 14:03:00,58.8,27.4,30.03,WSW,238,5.8,5.8,30,0.00,CLR,,0.00,WeatherDisplay:10.37,2013-01-19 20:03:00,
2013-01-19 14:09:00,59.2,27.7,30.03,West,260,8.1,8.1,30,0.00,CLR,,0.00,WeatherDisplay:10.37,2013-01-19 20:09:00,
2013-01-19 14:14:00,59.4,27.9,30.03,SW,224,5.8,5.8,30,0.00,CLR,,0.00,WeatherDisplay:10.37,2013-01-19 20:14:00,
2013-01-19 14:19:00,59.5,28.0,30.03,WSW,242,6.3,6.3,30,0.00,CLR,,0.00,WeatherDisplay:10.37,2013-01-19 20:19:00,
2013-01-19 14:24:00,59.9,28.4,30.03,WSW,244,6.3,6.3,30,0.00,CLR,,0.00,WeatherDisplay:10.37,2013-01-19 20:24:00,
2013-01-19 14:29:00,60.1,28.5,30.03,WNW,284,3.5,0.0,30,0.00,CLR,,0.00,WeatherDisplay:10.37,2013-01-19 20:29:00,
2013-01-19 14:34:00,60.3,28.7,30.03,SW,230,4.6,4.6,30,0.00,CLR,,0.00,WeatherDisplay:10.37,2013-01-19 20:34:00,
2013-01-19 14:39:00,60.6,29.0,30.03,West,279,5.8,5.8,30,0.00,CLR,,0.00,WeatherDisplay:10.37,2013-01-19 20:39:00,
2013-01-19 14:45:00,60.8,29.1,30.03,West,270,5.8,5.8,30,0.00,CLR,,0.00,WeatherDisplay:10.37,2013-01-19 20:45:00,
2013-01-19 14:50:00,61.0,29.3,30.03,WSW,253,3.5,3.5,30,0.00,CLR,,0.00,WeatherDisplay:10.37,2013-01-19 20:50:00,
2013-01-19 14:55:00,61.2,29.5,30.03,West,259,3.5,3.6,30,0.00,CLR,,0.00,WeatherDisplay:10.37,2013-01-19 20:55:00,
2013-01-19 15:00:00,61.3,29.6,30.03,West,277,3.5,3.5,30,0.00,CLR,,0.00,WeatherDisplay:10.37,2013-01-19 21:00:00,
2013-01-19 15:05:00,61.9,23.6,30.03,WSW,243,5.8,5.8,23,0.00,CLR,,0.00,WeatherDisplay:10.37,2013-01-19 21:05:00,
2013-01-19 15:10:00,62.1,23.8,30.03,West,271,3.0,6.0,23,0.00,CLR,,0.00,WeatherDisplay:10.37,2013-01-19 21:10:00,
2013-01-19 15:15:00,62.2,23.9,30.03,West,277,2.0,6.0,23,0.00,CLR,,0.00,WeatherDisplay:10.37,2013-01-19 21:15:00,
2013-01-19 15:20:00,62.6,24.2,30.03,WNW,286,5.0,6.0,23,0.00,CLR,,0.00,WeatherDisplay:10.37,2013-01-19 21:20:00,
2013-01-19 15:25:00,62.8,24.4,30.03,NW,304,5.8,0.0,23,0.00,CLR,,0.00,WeatherDisplay:10.37,2013-01-19 21:25:00,
2013-01-19 15:30:00,62.8,24.4,30.03,NNW,341,5.8,5.8,23,0.00,CLR,,0.00,WeatherDisplay:10.37,2013-01-19 21:30:00,
2013-01-19 15:36:00,62.8,24.4,30.06,NW,323,4.9,4.9,23,0.00,CLR,,0.00,WeatherDisplay:10.37,2013-01-19 21:36:00,
2013-01-19 15:42:00,63.0,24.5,30.06,West,265,8.3,8.3,23,0.00,CLR,,0.00,WeatherDisplay:10.37,2013-01-19 21:42:00,
2013-01-19 15:47:00,63.0,24.5,30.06,North,357,5.8,5.8,23,0.00,CLR,,0.00,WeatherDisplay:10.37,2013-01-19 21:47:00,
2013-01-19 15:53:00,63.0,24.5,30.06,WSW,255,5.8,5.8,23,0.00,CLR,,0.00,WeatherDisplay:10.37,2013-01-19 21:53:00,
2013-01-19 15:58:00,63.0,24.5,30.06,West,260,5.8,5.8,23,0.00,CLR,,0.00,WeatherDisplay:10.37,2013-01-19 21:58:00,
2013-01-19 16:03:00,62.8,21.1,30.06,West,270,6.9,6.9,20,0.00,CLR,,0.00,WeatherDisplay:10.37,2013-01-19 22:03:00,
2013-01-19 16:10:00,62.6,20.9,30.06,NW,316,6.9,6.9,20,0.00,CLR,,0.00,WeatherDisplay:10.37,2013-01-19 22:10:00,
2013-01-19 16:15:00,62.6,20.9,30.06,WNW,285,4.9,4.9,20,0.00,CLR,,0.00,WeatherDisplay:10.37,2013-01-19 22:15:00,
2013-01-19 16:20:00,62.2,20.6,30.06,North,357,5.4,5.4,20,0.00,CLR,,0.00,WeatherDisplay:10.37,2013-01-19 22:20:00,
2013-01-19 16:25:00,62.0,20.4,30.06,NNW,328,5.0,8.0,20,0.00,CLR,,0.00,WeatherDisplay:10.37,2013-01-19 22:25:00,
2013-01-19 16:30:00,61.7,20.2,30.06,NW,317,3.0,8.0,20,0.00,CLR,,0.00,WeatherDisplay:10.37,2013-01-19 22:30:00,
2013-01-19 16:35:00,61.3,19.9,30.09,WSW,237,3.5,3.5,20,0.00,CLR,,0.00,WeatherDisplay:10.37,2013-01-19 22:35:00,
2013-01-19 16:41:00,60.8,19.4,30.09,NW,326,6.9,6.9,20,0.00,CLR,,0.00,WeatherDisplay:10.37,2013-01-19 22:41:00,
2013-01-19 16:46:00,60.6,19.3,30.09,WNW,286,5.8,5.8,20,0.00,CLR,,0.00,WeatherDisplay:10.37,2013-01-19 22:46:00,
2013-01-19 16:53:00,59.7,18.5,30.09,NE,56,5.8,5.8,20,0.00,CLR,,0.00,WeatherDisplay:10.37,2013-01-19 22:53:00,
2013-01-19 16:58:00,59.2,18.1,30.09,North,4,5.8,5.8,20,0.00,CLR,,0.00,WeatherDisplay:10.37,2013-01-19 22:58:00,
2013-01-19 17:03:00,58.8,24.9,30.09,NW,314,8.0,8.0,27,0.00,CLR,,0.00,WeatherDisplay:10.37,2013-01-19 23:03:00,
2013-01-19 17:08:00,58.5,24.6,30.09,NNE,27,5.8,5.8,27,0.00,CLR,,0.00,WeatherDisplay:10.37,2013-01-19 23:08:00,
2013-01-19 17:13:00,58.1,24.3,30.09,WNW,294,5.8,5.8,27,0.00,CLR,,0.00,WeatherDisplay:10.37,2013-01-19 23:13:00,
2013-01-19 17:18:00,57.7,23.9,30.12,North,1,4.9,4.9,27,0.00,CLR,,0.00,WeatherDisplay:10.37,2013-01-19 23:18:00,
2013-01-19 17:23:00,57.2,23.5,30.12,WNW,303,4.0,4.0,27,0.00,CLR,,0.00,WeatherDisplay:10.37,2013-01-19 23:23:00,
2013-01-19 17:29:00,56.8,23.2,30.12,NNW,335,5.8,5.8,27,0.00,CLR,,0.00,WeatherDisplay:10.37,2013-01-19 23:29:00,
2013-01-19 17:34:00,56.3,22.7,30.12,NW,310,3.5,4.0,27,0.00,CLR,,0.00,WeatherDisplay:10.37,2013-01-19 23:34:00,
2013-01-19 17:39:00,56.1,22.6,30.12,North,350,4.6,4.6,27,0.00,CLR,,0.00,WeatherDisplay:10.37,2013-01-19 23:39:00,
2013-01-19 17:44:00,55.6,22.1,30.12,NE,38,5.8,5.8,27,0.00,CLR,,0.00,WeatherDisplay:10.37,2013-01-19 23:44:00,
2013-01-19 17:49:00,54.7,21.3,30.12,NW,326,3.5,0.0,27,0.00,CLR,,0.00,WeatherDisplay:10.37,2013-01-19 23:49:00,
2013-01-19 17:55:00,54.2,20.9,30.12,NW,326,0.0,3.0,27,0.00,CLR,,0.00,WeatherDisplay:10.37,2013-01-19 23:55:00,
2013-01-19 18:00:00,53.2,20.1,30.12,NNW,342,5.4,0.0,27,0.00,CLR,,0.00,WeatherDisplay:10.37,2013-01-20 00:00:00,
2013-01-19 18:06:00,52.9,27.3,30.12,WNW,293,2.3,0.0,37,0.00,CLR,,0.00,WeatherDisplay:10.37,2013-01-20 00:06:00,
2013-01-19 18:11:00,52.3,26.8,30.12,WNW,294,0.0,0.0,37,0.00,CLR,,0.00,WeatherDisplay:10.37,2013-01-20 00:11:00,
2013-01-19 18:16:00,51.6,26.2,30.12,WNW,294,0.0,0.0,37,0.00,CLR,,0.00,WeatherDisplay:10.37,2013-01-20 00:16:00,
2013-01-19 18:22:00,50.5,25.2,30.15,WNW,293,0.0,0.0,37,0.00,CLR,,0.00,WeatherDisplay:10.37,2013-01-20 00:22:00,
2013-01-19 18:27:00,50.0,24.7,30.15,NNW,334,0.0,0.0,37,0.00,CLR,,0.00,WeatherDisplay:10.37,2013-01-20 00:27:00,
2013-01-19 18:32:00,49.5,24.2,30.15,NW,325,3.6,0.0,37,0.00,CLR,,0.00,WeatherDisplay:10.37,2013-01-20 00:32:00,
2013-01-19 18:37:00,49.1,23.9,30.15,NW,306,2.3,0.0,37,0.00,CLR,,0.00,WeatherDisplay:10.37,2013-01-20 00:37:00,
2013-01-19 18:42:00,49.1,23.9,30.15,SW,236,0.0,0.0,37,0.00,CLR,,0.00,WeatherDisplay:10.37,2013-01-20 00:42:00,
2013-01-19 18:47:00,48.7,23.6,30.15,WNW,297,3.5,0.0,37,0.00,CLR,,0.00,WeatherDisplay:10.37,2013-01-20 00:47:00,
2013-01-19 18:52:00,48.6,23.4,30.15,WNW,297,0.0,0.0,37,0.00,CLR,,0.00,WeatherDisplay:10.37,2013-01-20 00:52:00,
2013-01-19 18:57:00,48.4,23.3,30.15,WNW,285,0.0,0.0,37,0.00,CLR,,0.00,WeatherDisplay:10.37,2013-01-20 00:57:00,
2013-01-19 19:02:00,48.2,23.1,30.15,WNW,285,0.0,0.0,37,0.00,CLR,,0.00,WeatherDisplay:10.37,2013-01-20 01:02:00,
2013-01-19 19:07:00,47.8,22.8,30.18,WNW,285,0.0,0.0,37,0.00,CLR,,0.00,WeatherDisplay:10.37,2013-01-20 01:07:00,
2013-01-19 19:13:00,47.3,24.2,30.18,WNW,289,3.5,0.0,40,0.00,CLR,,0.00,WeatherDisplay:10.37,2013-01-20 01:13:00,
2013-01-19 19:19:00,46.9,23.8,30.18,NW,310,5.8,5.8,40,0.00,CLR,,0.00,WeatherDisplay:10.37,2013-01-20 01:19:00,
2013-01-19 19:24:00,46.8,23.7,30.18,NNW,328,2.3,0.0,40,0.00,CLR,,0.00,WeatherDisplay:10.37,2013-01-20 01:24:00,
2013-01-19 19:29:00,46.8,23.7,30.18,NNE,15,3.5,0.0,40,0.00,CLR,,0.00,WeatherDisplay:10.37,2013-01-20 01:29:00,
2013-01-19 19:35:00,46.6,23.5,30.18,NW,308,0.0,0.0,40,0.00,CLR,,0.00,WeatherDisplay:10.37,2013-01-20 01:35:00,
2013-01-19 19:40:00,46.6,23.5,30.18,WNW,294,0.0,0.0,40,0.00,CLR,,0.00,WeatherDisplay:10.37,2013-01-20 01:40:00,
2013-01-19 19:45:00,46.2,23.2,30.18,WNW,294,0.0,0.0,40,0.00,CLR,,0.00,WeatherDisplay:10.37,2013-01-20 01:45:00,
2013-01-19 19:50:00,46.0,23.0,30.18,WNW,294,0.0,0.0,40,0.00,CLR,,0.00,WeatherDisplay:10.37,2013-01-20 01:50:00,
2013-01-19 19:55:00,45.7,22.7,30.18,WNW,294,0.0,2.0,40,0.00,CLR,,0.00,WeatherDisplay:10.37,2013-01-20 01:55:00,
2013-01-19 20:00:00,45.3,22.4,30.18,WNW,295,0.0,0.0,40,0.00,CLR,,0.00,WeatherDisplay:10.37,2013-01-20 02:00:00,
2013-01-19 20:05:00,45.0,22.1,30.21,WNW,295,0.0,0.0,40,0.00,CLR,,0.00,WeatherDisplay:10.37,2013-01-20 02:05:00,
2013-01-19 20:10:00,44.6,21.7,30.21,NNW,332,0.0,0.0,40,0.00,CLR,,0.00,WeatherDisplay:10.37,2013-01-20 02:10:00,
2013-01-19 20:15:00,44.3,25.3,30.21,NNW,330,0.0,0.0,47,0.00,CLR,,0.00,WeatherDisplay:10.37,2013-01-20 02:15:00,
2013-01-19 20:21:00,43.7,24.8,30.21,NW,309,4.0,0.0,47,0.00,CLR,,0.00,WeatherDisplay:10.37,2013-01-20 02:21:00,
2013-01-19 20:27:00,43.7,24.8,30.21,NW,309,0.0,0.0,47,0.00,CLR,,0.00,WeatherDisplay:10.37,2013-01-20 02:27:00,
2013-01-19 20:32:00,43.7,24.8,30.21,North,1,2.3,0.0,47,0.00,CLR,,0.00,WeatherDisplay:10.37,2013-01-20 02:32:00,
2013-01-19 20:37:00,44.1,25.1,30.21,NNW,344,3.5,0.0,47,0.00,CLR,,0.00,WeatherDisplay:10.37,2013-01-20 02:37:00,
2013-01-19 20:42:00,44.4,25.4,30.21,North,7,3.5,0.0,47,0.00,CLR,,0.00,WeatherDisplay:10.37,2013-01-20 02:42:00,
2013-01-19 20:47:00,44.8,25.8,30.21,ENE,67,2.3,0.0,47,0.00,CLR,,0.00,WeatherDisplay:10.37,2013-01-20 02:47:00,
2013-01-19 20:53:00,44.6,25.6,30.21,ENE,62,0.0,0.0,47,0.00,CLR,,0.00,WeatherDisplay:10.37,2013-01-20 02:53:00,
2013-01-19 20:58:00,44.4,25.4,30.21,NNE,25,0.0,0.0,47,0.00,CLR,,0.00,WeatherDisplay:10.37,2013-01-20 02:58:00,
2013-01-19 21:05:00,44.0,25.0,30.21,NNE,25,0.0,0.0,47,0.00,CLR,,0.00,WeatherDisplay:10.37,2013-01-20 03:05:00,
2013-01-19 21:10:00,43.5,24.5,30.21,NNE,25,0.0,0.0,47,0.00,CLR,,0.00,WeatherDisplay:10.37,2013-01-20 03:10:00,
2013-01-19 21:15:00,42.9,24.5,30.21,NNE,12,0.0,3.0,48,0.00,CLR,,0.00,WeatherDisplay:10.37,2013-01-20 03:15:00,
2013-01-19 21:20:00,42.4,24.1,30.24,NNE,14,0.0,0.0,48,0.00,CLR,,0.00,WeatherDisplay:10.37,2013-01-20 03:20:00,
2013-01-19 21:26:00,41.9,23.6,30.24,NNE,14,0.0,0.0,48,0.00,CLR,,0.00,WeatherDisplay:10.37,2013-01-20 03:26:00,
2013-01-19 21:31:00,41.5,23.3,30.24,NNE,14,0.0,0.0,48,0.00,CLR,,0.00,WeatherDisplay:10.37,2013-01-20 03:31:00,
2013-01-19 21:37:00,41.0,22.8,30.24,NNE,14,0.0,0.0,48,0.00,CLR,,0.00,WeatherDisplay:10.37,2013-01-20 03:37:00,
2013-01-19 21:42:00,40.5,22.3,30.24,NNE,15,2.3,0.0,48,0.00,CLR,,0.00,WeatherDisplay:10.37,2013-01-20 03:42:00,
2013-01-19 21:47:00,39.9,21.8,30.24,North,1,0.0,0.0,48,0.00,CLR,,0.00,WeatherDisplay:10.37,2013-01-20 03:47:00,
2013-01-19 21:53:00,39.7,21.6,30.24,North,5,0.0,0.0,48,0.00,CLR,,0.00,WeatherDisplay:10.37,2013-01-20 03:53:00,
2013-01-19 21:59:00,39.7,21.6,30.24,NE,45,3.5,3.5,48,0.00,CLR,,0.00,WeatherDisplay:10.37,2013-01-20 03:59:00,
2013-01-19 22:04:00,40.1,22.0,30.24,NNE,30,3.5,0.0,48,0.00,CLR,,0.00,WeatherDisplay:10.37,2013-01-20 04:04:00,
2013-01-19 22:09:00,40.5,22.3,30.24,NNE,30,0.0,0.0,48,0.00,CLR,,0.00,WeatherDisplay:10.37,2013-01-20 04:09:00,
2013-01-19 22:14:00,40.5,26.4,30.24,NE,48,3.5,0.0,57,0.00,CLR,,0.00,WeatherDisplay:10.37,2013-01-20 04:14:00,
2013-01-19 22:19:00,40.6,26.6,30.24,NNE,13,3.6,3.6,57,0.00,CLR,,0.00,WeatherDisplay:10.37,2013-01-20 04:19:00,
2013-01-19 22:24:00,41.5,27.4,30.24,NNE,25,4.6,4.6,57,0.00,CLR,,0.00,WeatherDisplay:10.37,2013-01-20 04:24:00,
2013-01-19 22:29:00,42.1,27.9,30.24,North,1,5.8,5.8,57,0.00,CLR,,0.00,WeatherDisplay:10.37,2013-01-20 04:29:00,
2013-01-19 22:34:00,42.6,28.4,30.27,NNW,348,5.8,5.8,57,0.00,CLR,,0.00,WeatherDisplay:10.37,2013-01-20 04:34:00,
2013-01-19 22:39:00,43.0,28.8,30.27,NNE,31,3.5,4.0,57,0.00,CLR,,0.00,WeatherDisplay:10.37,2013-01-20 04:39:00,
2013-01-19 22:44:00,43.0,28.8,30.27,NE,36,5.8,5.8,57,0.00,CLR,,0.00,WeatherDisplay:10.37,2013-01-20 04:44:00,
2013-01-19 22:49:00,43.0,28.8,30.27,NW,308,5.8,5.8,57,0.00,CLR,,0.00,WeatherDisplay:10.37,2013-01-20 04:49:00,
2013-01-19 22:54:00,43.0,28.8,30.27,NE,43,5.8,5.8,57,0.00,CLR,,0.00,WeatherDisplay:10.37,2013-01-20 04:54:00,
2013-01-19 23:00:00,43.0,28.8,30.27,North,1,4.6,4.6,57,0.00,CLR,,0.00,WeatherDisplay:10.37,2013-01-20 05:00:00,
2013-01-19 23:01:00,43.0,28.8,30.27,NE,43,3.5,3.5,57,0.00,CLR,,0.00,WeatherDisplay:10.37,2013-01-20 05:01:00,
2013-01-19 23:04:00,42.8,28.6,30.27,NNE,12,6.9,6.9,57,0.00,CLR,,0.00,WeatherDisplay:10.37,2013-01-20 05:04:00,
2013-01-19 23:09:00,42.8,28.6,30.27,ENE,60,5.8,5.8,57,0.00,CLR,,0.00,WeatherDisplay:10.37,2013-01-20 05:09:00,
2013-01-19 23:14:00,42.6,29.3,30.27,NNE,28,6.3,6.3,59,0.00,CLR,,0.00,WeatherDisplay:10.37,2013-01-20 05:14:00,
2013-01-19 23:19:00,42.4,29.1,30.27,NNE,27,5.8,5.8,59,0.00,CLR,,0.00,WeatherDisplay:10.37,2013-01-20 05:19:00,
2013-01-19 23:24:00,42.3,28.9,30.27,NNW,337,5.8,5.8,59,0.00,CLR,,0.00,WeatherDisplay:10.37,2013-01-20 05:24:00,
2013-01-19 23:29:00,42.1,28.8,30.27,NE,54,6.3,6.3,59,0.00,CLR,,0.00,WeatherDisplay:10.37,2013-01-20 05:29:00,
2013-01-19 23:34:00,41.7,28.4,30.27,NE,55,5.8,5.8,59,0.00,CLR,,0.00,WeatherDisplay:10.37,2013-01-20 05:34:00,
2013-01-19 23:39:00,41.5,28.3,30.27,NE,45,3.5,3.6,59,0.00,CLR,,0.00,WeatherDisplay:10.37,2013-01-20 05:39:00,
2013-01-19 23:44:00,41.2,27.9,30.27,NNE,26,5.8,5.8,59,0.00,CLR,,0.00,WeatherDisplay:10.37,2013-01-20 05:44:00,
2013-01-19 23:49:00,41.2,27.9,30.27,NE,35,5.8,5.8,59,0.00,CLR,,0.00,WeatherDisplay:10.37,2013-01-20 05:49:00,
2013-01-19 23:54:00,41.0,27.8,30.27,NNE,15,6.9,6.9,59,0.00,CLR,,0.00,WeatherDisplay:10.37,2013-01-20 05:54:00,
2013-01-19 23:59:00,40.8,27.6,30.27,North,5,5.8,5.8,59,0.00,CLR,,0.00,WeatherDisplay:10.37,2013-01-20 05:59:00,